Alden, Iowa
Current Conditions -  °F | °C
As of 5:55 AM on Monday 22 Dec 2014 (Local Time) from KIFA Reporting Station
Haze Haze  
Wind Chill: 28°   Ceiling: 400
Heat Index: 37°   Visibility: 4mi
Dew Point: 36°   Wind: 14mph
Humidity: 96%   Direction: 140°SE
Pressure: 29.67"   Gusts: NA
Location:  42.52°N, 93.38°W
Report Text: KIFA 221155Z AUTO 14012KT 4SM BR OVC004 03/02 A2967 RMK AO2 T00260020 10038 20026
Loading
Personal Weather Stations






























Interactive Weather Map New forecast layout! Learn more

10-Day Weather Forecast

Advertisements
Track Severe Weather on mobile